Albrightsville, PA (18210)

8:09 AM EDT on September 30, 2014 (GMT -0400)
Indian Mountain Lakes - Carbon County | Change Station
CLOSE
Current Station
Personal Weather Station
Location: Albrightsville, PA
Elevation: 1808 ft
Nearby Weather Stations
Active Advisory: Special Statement

Elev 1808 ft 41.01 °N, 75.54 °W | Updated 16 seconds ago

Fog
Fog
58.5 °F
Feels Like 58.5 °F
N
1.0
Wind Variable Wind from SW
Gusts 1.0 mph

Today
High -- | Low -- °F
--% Chance of Precip.
Yesterday
High -- | Low -- °F
Precip. -- in
6:57 AM 6:45 PM
Waxing Crescent, 36% visible
Pressure 29.96 in
Visibility 0.2 miles
Clouds
Dew Point 58 °F
Humidity 98%
Rainfall 0.00 in
Snow Depth Not available.
UV Not available.
Pollen 1.90 out of 12
Air Quality Not available.
Flu Activity Not available.
METAR KMPO 301153Z AUTO 22004KT M1/4SM FG VV001 14/13 A2997 RMK AO2 SLP146 T01390133 10139 20106 53006 TSNO $

More Conditions Fewer Conditions

Pressure 29.96 in
Visibility 0.2 miles
Clouds
Dew Point 58 °F
Humidity 98%
Rainfall 0.00 in
Snow Depth Not available.
UV Not available.
Pollen 1.90 out of 12
Air Quality Not available.
Flu Activity Not available.
METAR KMPO 301153Z AUTO 22004KT M1/4SM FG VV001 14/13 A2997 RMK AO2 SLP146 T01390133 10139 20106 53006 TSNO $

More Conditions Fewer Conditions

10-Day Weather Forecast

Almanac

Astronomy

Sep. 30, 2014 Rise Set
Actual Time 6:57 AM EDT 6:45 PM EDT
Civil Twilight 6:30 AM EDT 7:13 PM EDT
Nautical Twilight 5:58 AM EDT 7:45 PM EDT
Astronomical Twilight 5:26 AM EDT 8:17 PM EDT
Moon 1:05 PM EDT 11:11 PM EDT
Length of Visible Light 12h 42m
Length of Day
11h 48m
Tomorrow will be 2m 42s shorter.
Waxing Crescent, 36% of the Moon is Illuminated
Today
Waxing Crescent
Oct 1
First Quarter
Oct 8
Full
Oct 15
Last Quarter
Oct 23
New

Today's Extremes

State Highs State Lows

Community

WunderPhotos

Upload Photos

1,757,619 photos uploaded!

Nearby

Snow Depth

Station Depth Elevation
No new snow has been reported.

Earthquake Activity

City Distance Mag. Time & Date
No recent earthquake activity has been reported nearby.
Minimum magnitude displayed is 2.5.

Coastal Water Temperatures

Place Temperature
No Stations Reporting

Nearby Weather Stations